createdAt,value
2022-08-11T00:00:54.322Z,1.00
2022-08-11T00:01:57.440Z,1.33
2022-08-11T00:03:00.566Z,1.57
2022-08-11T00:04:03.617Z,1.00
2022-08-11T00:05:06.693Z,1.00
2022-08-11T00:06:09.861Z,1.00
2022-08-11T00:07:13.052Z,1.43
2022-08-11T00:08:16.126Z,1.57
2022-08-11T00:09:19.298Z,1.29
2022-08-11T00:10:22.377Z,1.00
2022-08-11T00:11:27.002Z,1.00
2022-08-11T00:12:29.719Z,1.50
2022-08-11T00:13:32.947Z,1.14
2022-08-11T00:14:36.922Z,0.43
2022-08-11T00:15:40.234Z,1.00
2022-08-11T00:16:43.336Z,1.00
2022-08-11T00:17:46.404Z,1.00
2022-08-11T00:18:49.581Z,0.57
2022-08-11T00:20:14.070Z,0.00
2022-08-11T00:20:56.874Z,0.50
2022-08-11T00:22:04.613Z,0.67
2022-08-11T00:23:07.362Z,0.00
2022-08-11T00:24:10.508Z,0.50
2022-08-11T00:25:13.789Z,0.57
2022-08-11T00:26:17.269Z,0.43
2022-08-11T00:27:20.478Z,1.00
2022-08-11T00:28:23.705Z,1.00
2022-08-11T00:29:28.049Z,1.00
2022-08-11T00:30:31.339Z,1.00
2022-08-11T00:31:34.602Z,0.57
2022-08-11T00:32:37.740Z,0.43
2022-08-11T00:33:45.215Z,1.00
2022-08-11T00:34:45.107Z,0.37
2022-08-11T00:35:53.930Z,0.67
2022-08-11T00:36:52.777Z,0.56
2022-08-11T00:37:56.063Z,0.86
2022-08-11T00:38:59.255Z,1.00
2022-08-11T00:40:02.483Z,0.67
2022-08-11T00:41:05.713Z,0.50
2022-08-11T00:42:08.792Z,1.00
2022-08-11T00:43:20.650Z,0.57
2022-08-11T00:44:16.598Z,0.50
2022-08-11T00:45:19.885Z,1.00
2022-08-11T00:46:23.131Z,0.67
2022-08-11T00:47:26.322Z,0.33
2022-08-11T00:48:29.324Z,0.57
2022-08-11T00:49:32.613Z,0.43
2022-08-11T00:50:35.584Z,0.57
2022-08-11T00:51:56.736Z,0.33
2022-08-11T00:52:43.169Z,0.25
2022-08-11T00:53:46.366Z,0.00
2022-08-11T00:54:49.329Z,0.00
2022-08-11T00:55:55.672Z,0.00
2022-08-11T00:56:57.127Z,0.50
2022-08-11T00:58:00.364Z,0.57
2022-08-11T00:59:03.604Z,0.33
2022-08-11T01:00:07.490Z,0.71
2022-08-11T01:01:11.005Z,0.57
2022-08-11T01:02:14.370Z,0.00
2022-08-11T01:03:17.662Z,0.00
2022-08-11T01:04:21.054Z,0.00
2022-08-11T01:05:24.443Z,0.00
2022-08-11T01:06:27.608Z,0.00
2022-08-11T01:08:02.740Z,0.00
2022-08-11T01:08:35.057Z,0.00
2022-08-11T01:09:38.288Z,0.00
2022-08-11T01:10:41.257Z,0.00
2022-08-11T01:11:55.469Z,0.00
2022-08-11T01:12:48.752Z,0.00
2022-08-11T01:13:52.135Z,0.00
2022-08-11T01:14:55.307Z,0.29
2022-08-11T01:15:58.799Z,0.00
2022-08-11T01:17:02.092Z,0.00
2022-08-11T01:18:05.251Z,0.00
2022-08-11T01:19:08.450Z,0.00
2022-08-11T01:20:45.933Z,0.57
2022-08-11T01:21:16.036Z,0.00
2022-08-11T01:22:19.236Z,0.00
2022-08-11T01:23:22.715Z,0.00
2022-08-11T01:24:25.893Z,0.00
2022-08-11T01:25:30.098Z,0.00
2022-08-11T01:26:33.279Z,0.00
2022-08-11T01:27:36.770Z,0.00
2022-08-11T01:28:39.955Z,0.00
2022-08-11T01:29:49.026Z,0.00
2022-08-11T01:30:47.237Z,0.00
2022-08-11T01:31:53.511Z,0.00
2022-08-11T01:32:56.982Z,0.00
2022-08-11T01:34:00.266Z,0.00
2022-08-11T01:35:03.547Z,0.00
2022-08-11T01:36:07.039Z,0.00
2022-08-11T01:37:10.116Z,0.00
2022-08-11T01:38:13.306Z,0.00
2022-08-11T01:39:18.427Z,0.00
2022-08-11T01:40:20.591Z,0.00
2022-08-11T01:41:23.874Z,0.00
2022-08-11T01:42:27.063Z,0.00
2022-08-11T01:43:30.140Z,0.00
2022-08-11T01:44:33.209Z,0.00
2022-08-11T01:45:36.398Z,0.00
2022-08-11T01:46:39.583Z,0.00
2022-08-11T01:47:52.930Z,0.00
2022-08-11T01:48:46.979Z,0.00
2022-08-11T01:50:09.897Z,0.00
2022-08-11T01:50:54.473Z,0.00
2022-08-11T01:51:57.556Z,0.00
2022-08-11T01:53:00.721Z,0.00
2022-08-11T01:54:03.812Z,0.00
2022-08-11T01:55:06.988Z,0.00
2022-08-11T01:56:10.162Z,0.00
2022-08-11T01:57:13.139Z,0.00
2022-08-11T01:58:16.421Z,0.00
2022-08-11T01:59:19.514Z,0.00
2022-08-11T02:00:22.942Z,0.00
2022-08-11T02:01:26.128Z,0.00
2022-08-11T02:02:29.259Z,0.00
2022-08-11T02:03:32.231Z,0.33
2022-08-11T02:04:36.427Z,0.50
2022-08-11T02:05:39.823Z,0.00
2022-08-11T02:06:43.098Z,0.00
2022-08-11T02:07:46.082Z,0.00
2022-08-11T02:08:50.620Z,0.00
2022-08-11T02:09:53.672Z,0.00
2022-08-11T02:10:57.061Z,0.43
2022-08-11T02:12:00.822Z,0.50
2022-08-11T02:13:05.064Z,0.00
2022-08-11T02:14:08.456Z,0.00
2022-08-11T02:15:11.535Z,0.00
2022-08-11T02:16:14.977Z,0.00
2022-08-11T02:17:18.198Z,0.43
2022-08-11T02:18:21.180Z,0.43
2022-08-11T02:19:25.380Z,0.62
2022-08-11T02:20:28.460Z,1.00
2022-08-11T02:21:31.564Z,0.67
2022-08-11T02:22:34.589Z,0.00
2022-08-11T02:24:04.441Z,0.29
2022-08-11T02:24:42.394Z,1.00
2022-08-11T02:25:45.677Z,1.00
2022-08-11T02:26:49.073Z,1.00
2022-08-11T02:27:52.347Z,0.57
2022-08-11T02:28:55.513Z,0.43
2022-08-11T02:29:58.816Z,0.57
2022-08-11T02:31:02.200Z,0.00
2022-08-11T02:32:24.832Z,0.00
2022-08-11T02:33:09.564Z,0.50
2022-08-11T02:34:12.800Z,1.00
2022-08-11T02:35:16.186Z,1.00
2022-08-11T02:36:19.546Z,0.29
2022-08-11T02:37:23.782Z,0.00
2022-08-11T02:38:27.138Z,1.00
2022-08-11T02:39:30.608Z,1.57
2022-08-11T02:40:34.114Z,1.00
2022-08-11T02:41:37.298Z,1.00
2022-08-11T02:42:40.685Z,1.43
2022-08-11T02:43:47.301Z,1.14
2022-08-11T02:44:48.274Z,1.00
2022-08-11T02:45:51.868Z,1.43
2022-08-11T02:46:55.252Z,0.71
2022-08-11T02:47:58.536Z,1.00
2022-08-11T02:49:01.891Z,1.67
2022-08-11T02:50:06.989Z,2.67
2022-08-11T02:51:09.413Z,1.75
2022-08-11T02:52:12.906Z,1.14
2022-08-11T02:53:16.291Z,1.00
2022-08-11T02:54:19.788Z,1.00
2022-08-11T02:55:50.904Z,1.00
2022-08-11T02:56:27.473Z,1.00
2022-08-11T02:57:30.863Z,1.33
2022-08-11T02:58:34.040Z,1.57
2022-08-11T02:59:37.334Z,1.00
2022-08-11T03:00:40.610Z,1.00
2022-08-11T03:01:43.919Z,1.00
2022-08-11T03:02:47.182Z,1.00
2022-08-11T03:03:50.429Z,1.33
2022-08-11T03:04:53.542Z,1.67
2022-08-11T03:05:56.931Z,1.43
2022-08-11T03:07:00.112Z,2.00
2022-08-11T03:08:03.396Z,1.00
2022-08-11T03:09:06.779Z,1.00
2022-08-11T03:10:09.991Z,1.43
2022-08-11T03:11:13.024Z,1.57
2022-08-11T03:12:16.202Z,1.00
2022-08-11T03:13:19.470Z,1.29
2022-08-11T03:14:22.552Z,1.00
2022-08-11T03:15:25.654Z,1.33
2022-08-11T03:16:28.962Z,1.67
2022-08-11T03:17:32.147Z,1.00
2022-08-11T03:18:35.419Z,1.00
2022-08-11T03:19:38.603Z,1.00
2022-08-11T03:20:41.883Z,1.00
2022-08-11T03:22:03.060Z,1.50
2022-08-11T03:22:50.604Z,1.00
2022-08-11T03:23:53.986Z,1.29
2022-08-11T03:24:57.583Z,1.00
2022-08-11T03:26:01.068Z,1.00
2022-08-11T03:27:04.319Z,0.00
2022-08-11T03:28:07.735Z,0.33
2022-08-11T03:29:10.995Z,1.14
2022-08-11T03:30:15.638Z,1.00
2022-08-11T03:31:18.888Z,0.86
2022-08-11T03:32:22.211Z,0.00
2022-08-11T03:33:25.700Z,0.43
2022-08-11T03:34:29.289Z,1.00
2022-08-11T03:35:32.571Z,0.75
2022-08-11T03:36:55.750Z,0.57
2022-08-11T03:37:40.576Z,0.00
2022-08-11T03:38:44.285Z,0.00
2022-08-11T03:39:56.486Z,0.00
2022-08-11T03:40:55.139Z,0.13
2022-08-11T03:42:05.289Z,0.00
2022-08-11T03:43:02.937Z,0.00
2022-08-11T03:44:06.320Z,0.43
2022-08-11T03:45:09.813Z,0.00
2022-08-11T03:46:13.296Z,0.43
2022-08-11T03:47:16.723Z,0.57
2022-08-11T03:48:20.029Z,0.00
2022-08-11T03:49:23.216Z,0.00
2022-08-11T03:50:26.536Z,0.00
2022-08-11T03:51:44.959Z,0.00
2022-08-11T03:52:34.188Z,0.00
2022-08-11T03:53:37.375Z,0.67
2022-08-11T03:54:40.520Z,0.67
2022-08-11T03:55:43.899Z,0.43
2022-08-11T03:56:47.035Z,1.00
2022-08-11T03:57:50.021Z,1.00
2022-08-11T03:58:53.425Z,0.57
2022-08-11T03:59:57.018Z,0.00
2022-08-11T04:01:00.611Z,0.00
2022-08-11T04:02:04.230Z,0.00
2022-08-11T04:03:07.586Z,0.00
2022-08-11T04:04:10.771Z,0.00
2022-08-11T04:05:14.258Z,0.00
2022-08-11T04:06:17.599Z,0.43
2022-08-11T04:07:21.140Z,1.00
2022-08-11T04:08:24.728Z,1.00
2022-08-11T04:09:29.215Z,0.50
2022-08-11T04:10:33.442Z,0.00
2022-08-11T04:11:36.696Z,0.43
2022-08-11T04:12:42.070Z,0.83
2022-08-11T04:13:44.420Z,0.00
2022-08-11T04:14:47.814Z,0.00
2022-08-11T04:15:51.093Z,0.00
2022-08-11T04:16:54.786Z,0.29
2022-08-11T04:17:58.380Z,0.00
2022-08-11T04:19:01.970Z,0.00
2022-08-11T04:20:05.357Z,0.43
2022-08-11T04:21:08.743Z,0.57
2022-08-11T04:22:12.018Z,0.00
2022-08-11T04:24:35.625Z,0.14
2022-08-11T04:24:37.913Z,1.00
2022-08-11T04:25:24.409Z,0.50
2022-08-11T04:26:27.502Z,0.00
2022-08-11T04:27:37.399Z,0.50
2022-08-11T04:28:42.837Z,0.37
2022-08-11T04:30:00.992Z,0.00
2022-08-11T04:30:45.471Z,0.00
2022-08-11T04:31:51.680Z,1.00
2022-08-11T04:32:53.266Z,1.00
2022-08-11T04:33:56.653Z,1.00
2022-08-11T04:35:00.553Z,1.00
2022-08-11T04:36:04.038Z,1.00
2022-08-11T04:37:07.541Z,0.57
2022-08-11T04:38:11.022Z,1.00
2022-08-11T04:39:14.565Z,1.00
2022-08-11T04:40:18.098Z,1.00
2022-08-11T04:41:21.383Z,1.00
2022-08-11T04:42:27.239Z,1.00
2022-08-11T04:43:28.829Z,1.00
2022-08-11T04:44:31.953Z,1.00
2022-08-11T04:45:35.238Z,1.00
2022-08-11T04:46:38.528Z,1.57
2022-08-11T04:48:04.492Z,1.71
2022-08-11T04:48:46.214Z,1.50
2022-08-11T04:49:49.599Z,1.00
2022-08-11T04:51:08.585Z,1.00
2022-08-11T04:51:57.295Z,1.00
2022-08-11T04:53:00.580Z,1.00
2022-08-11T04:54:03.679Z,1.57
2022-08-11T04:55:06.947Z,1.00
2022-08-11T04:56:10.330Z,1.00
2022-08-11T04:57:13.820Z,1.00
2022-08-11T04:58:17.210Z,1.00
2022-08-11T04:59:20.445Z,1.00
2022-08-11T05:00:23.694Z,1.00
2022-08-11T05:01:27.020Z,1.33
2022-08-11T05:02:30.397Z,1.67
2022-08-11T05:03:33.452Z,2.17
2022-08-11T05:04:36.606Z,2.50
2022-08-11T05:05:40.051Z,1.57
2022-08-11T05:06:44.509Z,0.50
2022-08-11T05:07:47.792Z,2.00
2022-08-11T05:08:50.881Z,1.57
2022-08-11T05:09:54.258Z,1.33
2022-08-11T05:10:57.734Z,1.67
2022-08-11T05:12:01.722Z,1.00
2022-08-11T05:13:05.604Z,0.88
2022-08-11T05:14:08.925Z,1.43
2022-08-11T05:15:12.436Z,1.57
2022-08-11T05:16:15.774Z,1.00
2022-08-11T05:17:19.044Z,1.43
2022-08-11T05:18:22.249Z,1.57
2022-08-11T05:19:25.514Z,1.00
2022-08-11T05:20:28.814Z,1.00
2022-08-11T05:21:44.375Z,1.00
2022-08-11T05:22:36.789Z,1.00
2022-08-11T05:23:40.330Z,1.00
2022-08-11T05:24:43.622Z,1.43
2022-08-11T05:26:43.310Z,1.43
2022-08-11T05:26:51.208Z,1.00
2022-08-11T05:27:54.734Z,0.57
2022-08-11T05:28:58.087Z,1.00
2022-08-11T05:30:01.574Z,1.00
2022-08-11T05:31:05.378Z,1.00
2022-08-11T05:32:08.768Z,1.00
2022-08-11T05:33:12.064Z,0.57
2022-08-11T05:34:15.294Z,0.00
2022-08-11T05:36:00.537Z,0.33
2022-08-11T05:36:22.733Z,0.00
2022-08-11T05:37:27.558Z,0.67
2022-08-11T05:38:30.816Z,1.00
2022-08-11T05:39:36.913Z,0.86
2022-08-11T05:40:38.716Z,0.50
2022-08-11T05:41:42.143Z,0.29
2022-08-11T05:42:45.383Z,0.00
2022-08-11T05:44:19.738Z,0.00
2022-08-11T05:44:52.975Z,0.00
2022-08-11T05:46:02.543Z,0.14
2022-08-11T05:47:01.084Z,0.50
2022-08-11T05:48:04.574Z,0.50
2022-08-11T05:49:08.277Z,0.00
2022-08-11T05:50:13.279Z,0.43
2022-08-11T05:51:16.596Z,0.50
2022-08-11T05:52:19.851Z,0.29
2022-08-11T05:53:24.447Z,0.88
2022-08-11T05:54:29.643Z,1.00
2022-08-11T05:55:32.860Z,1.00
2022-08-11T05:56:36.067Z,1.00
2022-08-11T05:57:50.416Z,1.00
2022-08-11T05:58:43.962Z,1.00
2022-08-11T05:59:47.129Z,1.00
2022-08-11T06:00:50.302Z,1.00
2022-08-11T06:01:54.797Z,1.00
2022-08-11T06:02:58.331Z,1.50
2022-08-11T06:04:01.925Z,1.57
2022-08-11T06:05:05.615Z,1.43
2022-08-11T06:06:08.918Z,1.57
2022-08-11T06:07:13.310Z,0.71
2022-08-11T06:08:16.958Z,1.00
2022-08-11T06:09:20.175Z,1.00
2022-08-11T06:10:23.332Z,1.00
2022-08-11T06:11:43.735Z,1.00
2022-08-11T06:12:30.868Z,1.50
2022-08-11T06:13:34.041Z,1.67
2022-08-11T06:14:37.323Z,0.67
2022-08-11T06:15:40.509Z,0.43
2022-08-11T06:16:43.790Z,1.00
2022-08-11T06:17:47.087Z,1.00
2022-08-11T06:18:50.483Z,0.86
2022-08-11T06:19:53.628Z,1.00
2022-08-11T06:20:58.275Z,1.00
2022-08-11T06:22:01.555Z,1.00
2022-08-11T06:23:04.734Z,1.00
2022-08-11T06:24:08.019Z,1.00
2022-08-11T06:25:11.808Z,0.71
2022-08-11T06:26:15.194Z,0.43
2022-08-11T06:27:18.477Z,1.00
2022-08-11T06:28:21.967Z,1.29
2022-08-11T06:29:37.815Z,1.00
2022-08-11T06:30:30.237Z,1.00
2022-08-11T06:31:33.516Z,1.43
2022-08-11T06:32:36.630Z,1.57
2022-08-11T06:33:40.305Z,1.43
2022-08-11T06:34:43.612Z,1.57
2022-08-11T06:35:47.223Z,1.00
2022-08-11T06:36:50.594Z,1.12
2022-08-11T06:37:58.648Z,1.43
2022-08-11T06:38:58.081Z,1.00
2022-08-11T06:40:01.364Z,1.00
2022-08-11T06:41:04.855Z,1.00
2022-08-11T06:42:08.244Z,1.00
2022-08-11T06:43:11.728Z,1.43
2022-08-11T06:44:15.018Z,1.86
2022-08-11T06:45:18.304Z,1.57
2022-08-11T06:46:25.220Z,1.29
2022-08-11T06:47:26.076Z,1.87
2022-08-11T06:48:29.179Z,1.33
2022-08-11T06:49:32.357Z,1.00
2022-08-11T06:50:35.529Z,1.43
2022-08-11T06:51:41.696Z,1.43
2022-08-11T06:52:43.539Z,2.00
2022-08-11T06:54:03.087Z,2.00
2022-08-11T06:54:51.239Z,1.50
2022-08-11T06:55:55.418Z,1.00
2022-08-11T06:57:29.504Z,1.50
2022-08-11T06:58:03.241Z,1.50
2022-08-11T06:59:06.606Z,1.00
2022-08-11T07:00:10.015Z,1.00
2022-08-11T07:01:13.580Z,1.57
2022-08-11T07:02:17.307Z,2.00
2022-08-11T07:03:20.477Z,1.14
2022-08-11T07:04:23.872Z,1.43
2022-08-11T07:05:27.157Z,2.00
2022-08-11T07:06:41.394Z,1.57
2022-08-11T07:07:34.846Z,1.50
2022-08-11T07:08:38.233Z,2.00
2022-08-11T07:09:41.621Z,1.71
2022-08-11T07:10:45.205Z,2.00
2022-08-11T07:11:48.400Z,1.67
2022-08-11T07:12:51.786Z,1.00
2022-08-11T07:13:56.018Z,1.37
2022-08-11T07:15:00.483Z,1.33
2022-08-11T07:16:13.327Z,2.00
2022-08-11T07:17:07.885Z,2.00
2022-08-11T07:18:11.271Z,1.57
2022-08-11T07:19:16.569Z,2.00
2022-08-11T07:20:19.156Z,2.00
2022-08-11T07:21:43.100Z,2.00
2022-08-11T07:22:26.875Z,1.50
2022-08-11T07:23:30.426Z,2.43
2022-08-11T07:24:34.316Z,2.33
2022-08-11T07:25:37.728Z,1.50
2022-08-11T07:26:40.787Z,2.00
2022-08-11T07:27:43.904Z,2.29
2022-08-11T07:28:47.399Z,3.00
2022-08-11T07:29:50.984Z,2.57
2022-08-11T07:30:54.467Z,2.43
2022-08-11T07:31:57.541Z,3.00
2022-08-11T07:33:00.847Z,3.00
2022-08-11T07:34:07.349Z,2.57
2022-08-11T07:35:08.833Z,2.00
2022-08-11T07:36:12.324Z,2.00
2022-08-11T07:37:15.670Z,2.43
2022-08-11T07:38:22.710Z,3.00
2022-08-11T07:39:24.100Z,3.00
2022-08-11T07:40:27.633Z,2.75
2022-08-11T07:41:31.091Z,2.57
2022-08-11T07:42:34.487Z,2.00
2022-08-11T07:43:38.080Z,3.00
2022-08-11T07:44:41.670Z,3.00
2022-08-11T07:45:45.262Z,3.00
2022-08-11T07:46:48.545Z,3.00
2022-08-11T07:47:51.729Z,2.71
2022-08-11T07:48:54.889Z,3.00
2022-08-11T07:49:58.604Z,3.00
2022-08-11T07:51:01.898Z,3.57
2022-08-11T07:52:05.274Z,3.29
2022-08-11T07:53:09.788Z,3.29
2022-08-11T07:54:16.983Z,3.87
2022-08-11T07:55:17.694Z,3.00
2022-08-11T07:56:33.116Z,3.00
2022-08-11T07:58:11.198Z,3.25
2022-08-11T07:58:31.606Z,3.00
2022-08-11T08:00:00.460Z,2.50
2022-08-11T08:00:39.744Z,2.87
2022-08-11T08:01:43.058Z,3.00
2022-08-11T08:02:46.414Z,3.43
2022-08-11T08:03:54.216Z,4.29
2022-08-11T08:04:54.313Z,3.87
2022-08-11T08:05:57.699Z,3.86
2022-08-11T08:07:00.896Z,4.57
2022-08-11T08:08:04.066Z,4.00
2022-08-11T08:09:07.126Z,4.00
2022-08-11T08:10:15.929Z,4.33
2022-08-11T08:11:14.835Z,4.00
2022-08-11T08:12:18.123Z,4.00
2022-08-11T08:13:22.151Z,4.00
2022-08-11T08:14:25.505Z,3.86
2022-08-11T08:15:28.658Z,4.33
2022-08-11T08:16:31.975Z,4.14
2022-08-11T08:17:35.561Z,3.29
2022-08-11T08:18:38.796Z,3.57
2022-08-11T08:19:41.926Z,3.00
2022-08-11T08:20:45.215Z,2.43
2022-08-11T08:21:48.696Z,4.33
2022-08-11T08:22:51.942Z,5.00
2022-08-11T08:23:56.557Z,3.14
2022-08-11T08:24:59.573Z,3.50
2022-08-11T08:26:02.860Z,3.43
2022-08-11T08:27:08.076Z,4.43
2022-08-11T08:28:11.272Z,5.00
2022-08-11T08:29:14.659Z,4.71
2022-08-11T08:30:17.839Z,5.00
2022-08-11T08:31:20.977Z,4.67
2022-08-11T08:32:24.324Z,4.00
2022-08-11T08:33:27.898Z,3.57
2022-08-11T08:34:32.375Z,3.75
2022-08-11T08:35:36.108Z,4.00
2022-08-11T08:36:40.518Z,3.50
2022-08-11T08:37:45.734Z,3.17
2022-08-11T08:38:48.729Z,3.50
2022-08-11T08:39:51.944Z,4.00
2022-08-11T08:40:56.260Z,3.14
2022-08-11T08:41:59.805Z,3.25
2022-08-11T08:43:03.396Z,4.50
2022-08-11T08:44:37.756Z,4.57
2022-08-11T08:45:11.296Z,4.00
2022-08-11T08:46:14.885Z,4.00
2022-08-11T08:47:42.077Z,3.50
2022-08-11T08:48:23.300Z,4.50
2022-08-11T08:49:26.788Z,4.50
2022-08-11T08:50:29.826Z,2.57
2022-08-11T08:51:54.677Z,3.00
2022-08-11T08:52:39.454Z,4.75
2022-08-11T08:53:53.242Z,4.00
2022-08-11T08:54:45.877Z,3.00
2022-08-11T08:55:48.996Z,3.00
2022-08-11T08:56:52.243Z,3.33
2022-08-11T08:57:55.621Z,3.57
2022-08-11T08:58:58.906Z,3.00
2022-08-11T09:00:02.110Z,3.43
2022-08-11T09:01:05.310Z,4.00
2022-08-11T09:02:08.555Z,4.14
2022-08-11T09:03:38.940Z,3.86
2022-08-11T09:04:20.391Z,3.00
2022-08-11T09:05:20.359Z,3.50
2022-08-11T09:06:23.943Z,4.00
2022-08-11T09:07:28.186Z,4.00
2022-08-11T09:08:31.793Z,4.00
2022-08-11T09:09:35.286Z,3.57
2022-08-11T09:10:38.362Z,3.86
2022-08-11T09:11:41.694Z,4.33
2022-08-11T09:12:44.878Z,3.43
2022-08-11T09:14:04.927Z,4.33
2022-08-11T09:14:52.364Z,4.25
2022-08-11T09:15:56.473Z,4.00
2022-08-11T09:17:00.891Z,4.50
2022-08-11T09:18:04.273Z,5.00
2022-08-11T09:19:07.482Z,4.57
2022-08-11T09:20:10.646Z,4.17
2022-08-11T09:21:13.813Z,4.83
2022-08-11T09:22:17.100Z,4.57
2022-08-11T09:24:08.409Z,4.00
2022-08-11T09:24:26.375Z,4.87
2022-08-11T09:25:28.993Z,5.25
2022-08-11T09:26:32.184Z,4.57
2022-08-11T09:27:35.362Z,4.57
2022-08-11T09:28:38.642Z,4.00
2022-08-11T09:29:41.928Z,4.00
2022-08-11T09:30:45.521Z,3.57
2022-08-11T09:31:48.809Z,3.43
2022-08-11T09:32:52.086Z,4.29
2022-08-11T09:33:55.188Z,4.57
2022-08-11T09:34:58.351Z,4.00
2022-08-11T09:36:01.637Z,4.00
2022-08-11T09:37:05.020Z,4.00
2022-08-11T09:38:08.205Z,3.67
2022-08-11T09:39:11.510Z,3.33
2022-08-11T09:40:14.872Z,3.86
2022-08-11T09:41:18.158Z,3.43
2022-08-11T09:42:23.148Z,4.50
2022-08-11T09:43:26.775Z,3.75
2022-08-11T09:44:30.062Z,3.86
2022-08-11T09:45:40.291Z,4.00
2022-08-11T09:46:38.170Z,4.00
2022-08-11T09:47:41.449Z,4.00
2022-08-11T09:48:44.628Z,3.71
2022-08-11T09:49:47.834Z,3.86
2022-08-11T09:50:50.992Z,4.71
2022-08-11T09:52:01.972Z,4.57
2022-08-11T09:53:34.763Z,5.00
2022-08-11T09:54:03.957Z,5.87
2022-08-11T09:55:07.307Z,5.87
2022-08-11T09:56:10.486Z,4.71
2022-08-11T09:57:13.666Z,5.00
2022-08-11T09:58:43.240Z,5.71
2022-08-11T09:59:21.109Z,5.00
2022-08-11T10:00:24.340Z,5.67
2022-08-11T10:01:27.746Z,5.00
2022-08-11T10:02:31.009Z,5.00
2022-08-11T10:03:36.246Z,5.43
2022-08-11T10:04:38.463Z,5.00
2022-08-11T10:05:41.580Z,4.33
2022-08-11T10:06:44.762Z,5.43
2022-08-11T10:07:49.073Z,7.00
2022-08-11T10:08:52.355Z,7.14
2022-08-11T10:09:55.539Z,6.00
2022-08-11T10:10:58.625Z,6.86
2022-08-11T10:12:02.000Z,6.67
2022-08-11T10:13:05.353Z,5.43
2022-08-11T10:14:33.320Z,5.12
2022-08-11T10:15:14.518Z,6.00
2022-08-11T10:16:17.801Z,5.57
2022-08-11T10:17:21.085Z,5.00
2022-08-11T10:18:24.374Z,5.43
2022-08-11T10:19:27.657Z,6.43
2022-08-11T10:20:30.934Z,6.14
2022-08-11T10:21:34.126Z,5.86
2022-08-11T10:22:37.401Z,5.00
2022-08-11T10:24:01.303Z,5.43
2022-08-11T10:24:45.172Z,5.50
2022-08-11T10:25:48.489Z,5.14
2022-08-11T10:26:51.675Z,6.00
2022-08-11T10:28:28.982Z,6.00
2022-08-11T10:29:12.511Z,6.00
2022-08-11T10:30:04.595Z,6.12
2022-08-11T10:31:12.683Z,6.00
2022-08-11T10:32:13.442Z,6.00
2022-08-11T10:33:36.816Z,5.14
2022-08-11T10:34:21.107Z,4.87
2022-08-11T10:35:25.421Z,5.50
2022-08-11T10:36:28.685Z,5.57
2022-08-11T10:38:08.523Z,5.43
2022-08-11T10:38:36.218Z,6.25
2022-08-11T10:39:39.382Z,6.00
2022-08-11T10:40:42.671Z,5.57
2022-08-11T10:42:03.369Z,5.29
2022-08-11T10:42:57.657Z,5.50
2022-08-11T10:44:01.258Z,5.37
2022-08-11T10:44:59.041Z,5.00
2022-08-11T10:46:02.251Z,5.57
2022-08-11T10:47:05.633Z,7.00
2022-08-11T10:48:12.190Z,5.86
2022-08-11T10:49:13.641Z,5.75
2022-08-11T10:50:17.509Z,5.86
2022-08-11T10:51:50.439Z,6.12
2022-08-11T10:52:25.437Z,5.87
2022-08-11T10:53:28.822Z,5.00
2022-08-11T10:54:32.224Z,4.83
2022-08-11T10:55:35.799Z,5.00
2022-08-11T10:56:38.940Z,4.43
2022-08-11T10:57:42.291Z,5.33
2022-08-11T10:58:46.599Z,6.00
2022-08-11T10:59:49.320Z,5.71
2022-08-11T11:00:52.696Z,4.67
2022-08-11T11:01:55.917Z,4.86
2022-08-11T11:03:07.124Z,4.00
2022-08-11T11:04:03.915Z,5.25
2022-08-11T11:05:07.305Z,5.86
2022-08-11T11:06:13.295Z,6.50
2022-08-11T11:07:15.324Z,5.00
2022-08-11T11:08:18.693Z,4.43
2022-08-11T11:09:21.952Z,4.86
2022-08-11T11:10:25.264Z,4.43
2022-08-11T11:11:28.960Z,5.43
2022-08-11T11:12:32.449Z,5.57
2022-08-11T11:13:35.933Z,5.00
2022-08-11T11:14:46.114Z,5.00
2022-08-11T11:15:43.731Z,5.00
2022-08-11T11:16:46.912Z,5.43
2022-08-11T11:17:50.056Z,5.57
2022-08-11T11:19:01.014Z,5.00
2022-08-11T11:19:57.484Z,4.50
2022-08-11T11:21:01.278Z,4.67
2022-08-11T11:22:04.880Z,4.00
2022-08-11T11:23:08.255Z,4.00
2022-08-11T11:24:11.645Z,4.00
2022-08-11T11:25:15.366Z,4.43
2022-08-11T11:26:18.723Z,5.00
2022-08-11T11:27:23.443Z,5.50
2022-08-11T11:28:27.031Z,6.00
2022-08-11T11:29:30.387Z,5.50
2022-08-11T11:30:33.906Z,5.00
2022-08-11T11:31:37.294Z,5.00
2022-08-11T11:32:40.805Z,4.57
2022-08-11T11:34:06.787Z,4.86
2022-08-11T11:34:53.591Z,5.00
2022-08-11T11:35:52.895Z,4.50
2022-08-11T11:36:56.073Z,5.00
2022-08-11T11:38:04.074Z,5.00
2022-08-11T11:39:03.667Z,4.50
2022-08-11T11:40:06.961Z,4.71
2022-08-11T11:41:10.134Z,5.57
2022-08-11T11:42:13.415Z,4.71
2022-08-11T11:43:17.107Z,4.57
2022-08-11T11:44:20.388Z,4.43
2022-08-11T11:45:24.284Z,4.57
2022-08-11T11:46:30.187Z,4.75
2022-08-11T11:47:31.816Z,5.00
2022-08-11T11:48:35.269Z,5.33
2022-08-11T11:49:38.552Z,5.57
2022-08-11T11:50:41.621Z,5.43
2022-08-11T11:51:45.534Z,6.14
2022-08-11T11:52:49.328Z,5.00
2022-08-11T11:53:52.818Z,5.00
2022-08-11T11:54:56.212Z,5.00
2022-08-11T11:56:00.407Z,5.00
2022-08-11T11:57:04.002Z,5.00
2022-08-11T11:58:07.490Z,5.00
2022-08-11T11:59:11.282Z,5.75
2022-08-11T12:00:15.486Z,5.75
2022-08-11T12:01:18.791Z,4.57
2022-08-11T12:02:22.485Z,4.86
2022-08-11T12:03:25.997Z,5.00
2022-08-11T12:04:29.653Z,5.43
2022-08-11T12:05:33.043Z,5.57
2022-08-11T12:06:37.648Z,5.43
2022-08-11T12:07:40.848Z,5.62
2022-08-11T12:08:44.015Z,4.86
2022-08-11T12:09:47.427Z,5.00
2022-08-11T12:10:50.689Z,4.57
2022-08-11T12:11:53.975Z,3.86
2022-08-11T12:12:57.581Z,5.43
2022-08-11T12:14:00.923Z,5.71
2022-08-11T12:15:04.312Z,5.57
2022-08-11T12:16:33.498Z,6.29
2022-08-11T12:17:12.137Z,6.50
2022-08-11T12:18:15.961Z,5.43
2022-08-11T12:19:19.326Z,5.00
2022-08-11T12:20:33.892Z,4.43
2022-08-11T12:21:27.337Z,5.12
2022-08-11T12:22:30.602Z,5.57
2022-08-11T12:23:33.791Z,4.14
2022-08-11T12:24:36.919Z,4.43
2022-08-11T12:25:40.150Z,5.00
2022-08-11T12:26:43.327Z,5.00
2022-08-11T12:27:46.423Z,5.00
2022-08-11T12:28:49.694Z,5.00
2022-08-11T12:29:55.548Z,5.57
2022-08-11T12:30:57.294Z,5.00
2022-08-11T12:32:00.471Z,5.00
2022-08-11T12:33:03.649Z,5.43
2022-08-11T12:34:06.938Z,6.00
2022-08-11T12:35:10.320Z,5.67
2022-08-11T12:36:13.809Z,5.00
2022-08-11T12:37:16.853Z,4.86
2022-08-11T12:38:21.475Z,4.50
2022-08-11T12:40:16.145Z,4.75
2022-08-11T12:40:43.099Z,4.25
2022-08-11T12:41:32.956Z,5.00
2022-08-11T12:42:36.076Z,5.86
2022-08-11T12:43:39.785Z,6.67
2022-08-11T12:44:43.109Z,5.50
2022-08-11T12:45:46.143Z,5.29
2022-08-11T12:46:49.219Z,5.67
2022-08-11T12:48:40.124Z,5.00
2022-08-11T12:48:59.758Z,5.00
2022-08-11T12:50:01.222Z,5.50
2022-08-11T12:51:04.395Z,5.57
2022-08-11T12:52:14.846Z,5.43
2022-08-11T12:53:11.885Z,6.00
2022-08-11T12:54:15.270Z,5.57
2022-08-11T12:55:18.460Z,5.00
2022-08-11T12:56:21.739Z,5.86
2022-08-11T12:57:36.115Z,6.57
2022-08-11T12:58:29.541Z,6.00
2022-08-11T12:59:32.826Z,6.14
2022-08-11T13:00:36.316Z,5.43
2022-08-11T13:01:39.460Z,6.14
2022-08-11T13:02:44.433Z,5.00
2022-08-11T13:03:52.466Z,5.50
2022-08-11T13:04:51.186Z,6.25
2022-08-11T13:05:54.491Z,6.71
2022-08-11T13:06:57.559Z,6.00
2022-08-11T13:08:00.837Z,5.57
2022-08-11T13:09:04.016Z,5.86
2022-08-11T13:10:07.523Z,5.14
2022-08-11T13:11:11.720Z,6.00
2022-08-11T13:12:14.996Z,6.57
2022-08-11T13:13:52.523Z,6.00
2022-08-11T13:14:22.384Z,6.00
2022-08-11T13:15:25.669Z,6.00
2022-08-11T13:16:28.962Z,6.00
2022-08-11T13:17:43.554Z,5.17
2022-08-11T13:18:36.442Z,5.00
2022-08-11T13:19:39.726Z,5.00
2022-08-11T13:20:42.905Z,5.00
2022-08-11T13:21:45.957Z,5.43
2022-08-11T13:22:49.167Z,5.33
2022-08-11T13:24:00.462Z,5.33
2022-08-11T13:24:56.968Z,5.50
2022-08-11T13:26:00.011Z,5.29
2022-08-11T13:27:03.044Z,5.00
2022-08-11T13:28:06.204Z,5.00
2022-08-11T13:29:09.370Z,5.43
2022-08-11T13:30:12.568Z,5.86
2022-08-11T13:31:15.755Z,5.57
2022-08-11T13:32:19.953Z,5.57
2022-08-11T13:33:23.444Z,5.00
2022-08-11T13:34:27.023Z,5.00
2022-08-11T13:35:30.424Z,5.00
2022-08-11T13:36:33.912Z,5.43
2022-08-11T13:38:27.226Z,5.29
2022-08-11T13:38:42.830Z,4.50
2022-08-11T13:39:45.871Z,4.50
2022-08-11T13:40:55.719Z,5.00
2022-08-11T13:41:53.405Z,6.00
2022-08-11T13:42:56.586Z,5.57
2022-08-11T13:43:59.869Z,4.67
2022-08-11T13:45:04.280Z,5.00
2022-08-11T13:46:07.567Z,5.00
2022-08-11T13:47:10.849Z,5.00
2022-08-11T13:48:13.947Z,5.00
2022-08-11T13:49:17.119Z,5.00
2022-08-11T13:50:20.498Z,5.00
2022-08-11T13:51:23.556Z,5.00
2022-08-11T13:52:27.985Z,5.62
2022-08-11T13:53:31.055Z,5.14
2022-08-11T13:54:34.251Z,4.43
2022-08-11T13:55:51.713Z,5.33
2022-08-11T13:56:41.740Z,5.50
2022-08-11T13:58:19.444Z,4.17
2022-08-11T13:58:53.806Z,5.00
2022-08-11T13:59:53.637Z,5.00
2022-08-11T14:00:57.945Z,5.00
2022-08-11T14:02:20.118Z,5.43
2022-08-11T14:03:05.960Z,6.00
2022-08-11T14:04:29.914Z,5.50
2022-08-11T14:05:13.543Z,4.00
2022-08-11T14:06:17.033Z,4.14